NCAR-RAP Real-Time Weather Data

Output produced by METARs form (06 May 2021  15:49 UTC)
found at http://weather.rap.ucar.edu/surface/
 
KHSE 061451Z AUTO 04010G19KT 10SM SCT055 18/09 A3004 RMK AO2 SLP173 T01830094 51013
KHSE 061351Z AUTO 04012G19KT 10SM BKN050 OVC080 18/09 A3003 RMK AO2 SLP170 T01780094
KHSE 061251Z AUTO 03009G17KT 350V070 10SM OVC050 17/09 A3002 RMK AO2 SLP165 T01720089
KHSE 061151Z AUTO 05011G16KT 10SM OVC047 16/11 A3000 RMK AO2 SLP160 60004 70027 T01610106 10194 20161 53022
KHSE 061051Z AUTO 03010G21KT 10SM FEW049 17/09 A2996 RMK AO2 PK WND 02026/1005 SLP145 T01670094
KHSE 060951Z AUTO 02014G26KT 10SM FEW050 17/09 A2995 RMK AO2 PK WND 01028/0941 SLP141 T01670089
KHSE 060851Z AUTO 03012G28KT 10SM FEW042 BKN060 17/10 A2994 RMK AO2 PK WND 01028/0842 SLP138 P0003 60004 T01720100 53015
KHSE 060751Z AUTO 02013G23KT 350V080 10SM OVC038 17/12 A2993 RMK AO2 RAB02E30 SLP134 P0001 T01720117
KHSE 060651Z AUTO 02010G25KT 350V050 10SM OVC035 19/14 A2991 RMK AO2 SLP126 T01890139
KHSE 060633Z AUTO 03014G25KT 10SM FEW020 OVC031 19/14 A2990 RMK AO2 T01890139
KHSE 060551Z AUTO 03010G20KT 10SM BKN015 OVC020 19/17 A2990 RMK AO2 RAB17E45 SLP123 P0000 60000 T01940167 10222 20194 53016
KHSE 060520Z AUTO 04010G18KT 10SM -RA FEW018 BKN028 OVC035 21/17 A2989 RMK AO2 RAB17 P0000 T02060172
KHSE 060512Z AUTO 03009G21KT 10SM SCT025 OVC030 21/18 A2989 RMK AO2 T02110178
KHSE 060451Z AUTO 10SM FEW019 BKN025 BKN080 21/18 A2988 RMK AO2 SLP119 T02110178 402560211
KHSE 060351Z AUTO 25009KT 5SM BR CLR 22/20 A2984 RMK AO2 SLP103 T02170200
KHSE 060251Z AUTO 24011G18KT 6SM BR CLR 22/20 A2985 RMK AO2 SLP107 T02170200 51011
KHSE 060151Z AUTO 24011G18KT 6SM BR CLR 22/20 A2984 RMK AO2 SLP106 T02170200
KHSE 060051Z AUTO 24010KT 6SM HZ CLR 22/19 A2983 RMK AO2 SLP102 T02220194
KHSE 052351Z AUTO 24012KT 5SM HZ CLR 22/19 A2982 RMK AO2 SLP096 T02220194 10256 20222 53008